sensor_id;sensor_type;location;lat;lon;timestamp;pressure;altitude;pressure_sealevel;temperature;humidity
62333;BME280;48624;49.812;8.562;2023-09-18T00:02:06;99808.53;;;20.58;85.69
62333;BME280;48624;49.812;8.562;2023-09-18T00:04:32;99812.63;;;20.54;86.19
62333;BME280;48624;49.812;8.562;2023-09-18T00:06:57;99806.50;;;20.60;85.73
62333;BME280;48624;49.812;8.562;2023-09-18T00:09:22;99803.81;;;20.60;85.88
62333;BME280;48624;49.812;8.562;2023-09-18T00:11:48;99802.97;;;20.59;85.82
62333;BME280;48624;49.812;8.562;2023-09-18T00:14:13;99802.97;;;20.59;85.42
62333;BME280;48624;49.812;8.562;2023-09-18T00:16:39;99807.50;;;20.59;85.50
62333;BME280;48624;49.812;8.562;2023-09-18T00:19:05;99797.94;;;20.56;85.76
62333;BME280;48624;49.812;8.562;2023-09-18T00:21:33;99790.91;;;20.55;86.17
62333;BME280;48624;49.812;8.562;2023-09-18T00:23:58;99794.63;;;20.54;85.67
62333;BME280;48624;49.812;8.562;2023-09-18T00:26:25;99788.31;;;20.32;87.61
62333;BME280;48624;49.812;8.562;2023-09-18T00:28:50;99792.56;;;20.26;88.38
62333;BME280;48624;49.812;8.562;2023-09-18T00:31:15;99782.94;;;20.32;87.16
62333;BME280;48624;49.812;8.562;2023-09-18T00:33:40;99780.69;;;20.35;87.02
62333;BME280;48624;49.812;8.562;2023-09-18T00:36:06;99769.56;;;20.38;87.35
62333;BME280;48624;49.812;8.562;2023-09-18T00:38:31;99770.03;;;20.42;87.02
62333;BME280;48624;49.812;8.562;2023-09-18T00:40:57;99770.88;;;20.43;87.15
62333;BME280;48624;49.812;8.562;2023-09-18T00:43:22;99769.28;;;20.48;86.67
62333;BME280;48624;49.812;8.562;2023-09-18T00:45:48;99755.19;;;20.46;86.84
62333;BME280;48624;49.812;8.562;2023-09-18T00:48:15;99746.84;;;20.41;87.14
62333;BME280;48624;49.812;8.562;2023-09-18T00:50:41;99742.94;;;20.44;87.13
62333;BME280;48624;49.812;8.562;2023-09-18T00:53:07;99733.41;;;20.41;87.12
62333;BME280;48624;49.812;8.562;2023-09-18T00:55:36;99724.59;;;20.47;86.23
62333;BME280;48624;49.812;8.562;2023-09-18T00:58:02;99731.09;;;20.38;86.68
62333;BME280;48624;49.812;8.562;2023-09-18T01:00:28;99728.94;;;20.33;87.46
62333;BME280;48624;49.812;8.562;2023-09-18T01:02:53;99727.38;;;20.09;89.04
62333;BME280;48624;49.812;8.562;2023-09-18T01:05:18;99723.03;;;20.08;89.19
62333;BME280;48624;49.812;8.562;2023-09-18T01:07:45;99727.28;;;20.17;88.08
62333;BME280;48624;49.812;8.562;2023-09-18T01:10:11;99726.34;;;19.95;89.64
62333;BME280;48624;49.812;8.562;2023-09-18T01:12:46;99728.50;;;20.15;87.59
62333;BME280;48624;49.812;8.562;2023-09-18T01:15:27;99728.41;;;20.08;87.54
62333;BME280;48624;49.812;8.562;2023-09-18T01:17:55;99727.56;;;20.07;88.04
62333;BME280;48624;49.812;8.562;2023-09-18T01:20:21;99730.88;;;20.09;88.50
62333;BME280;48624;49.812;8.562;2023-09-18T01:22:46;99734.34;;;20.18;87.19
62333;BME280;48624;49.812;8.562;2023-09-18T01:25:11;99733.69;;;20.31;85.86
62333;BME280;48624;49.812;8.562;2023-09-18T01:27:37;99729.78;;;20.04;87.89
62333;BME280;48624;49.812;8.562;2023-09-18T01:30:02;99740.91;;;20.16;87.04
62333;BME280;48624;49.812;8.562;2023-09-18T01:32:30;99734.03;;;20.13;87.25
62333;BME280;48624;49.812;8.562;2023-09-18T01:34:59;99728.41;;;20.08;87.87
62333;BME280;48624;49.812;8.562;2023-09-18T01:37:27;99721.16;;;20.08;87.29
62333;BME280;48624;49.812;8.562;2023-09-18T01:39:54;99715.31;;;20.05;87.69
62333;BME280;48624;49.812;8.562;2023-09-18T01:42:20;99726.63;;;20.00;88.54
62333;BME280;48624;49.812;8.562;2023-09-18T01:44:47;99736.09;;;20.11;88.17
62333;BME280;48624;49.812;8.562;2023-09-18T01:47:15;99761.78;;;20.29;86.64
62333;BME280;48624;49.812;8.562;2023-09-18T01:49:41;99792.09;;;20.22;87.13
62333;BME280;48624;49.812;8.562;2023-09-18T01:52:08;99733.88;;;19.76;92.08
62333;BME280;48624;49.812;8.562;2023-09-18T01:54:34;99728.97;;;19.65;95.47
62333;BME280;48624;49.812;8.562;2023-09-18T01:57:00;99739.72;;;19.65;97.38
62333;BME280;48624;49.812;8.562;2023-09-18T01:59:27;99758.91;;;19.53;100.00
62333;BME280;48624;49.812;8.562;2023-09-18T02:01:53;99831.06;;;19.88;96.29
62333;BME280;48624;49.812;8.562;2023-09-18T02:04:19;99886.63;;;19.96;94.42
62333;BME280;48624;49.812;8.562;2023-09-18T02:06:46;99912.69;;;19.64;97.83
62333;BME280;48624;49.812;8.562;2023-09-18T02:09:12;99929.59;;;19.73;98.69
62333;BME280;48624;49.812;8.562;2023-09-18T02:11:41;99905.28;;;19.66;100.00
62333;BME280;48624;49.812;8.562;2023-09-18T02:14:08;99877.13;;;19.53;100.00
62333;BME280;48624;49.812;8.562;2023-09-18T02:16:35;99806.13;;;19.48;100.00
62333;BME280;48624;49.812;8.562;2023-09-18T02:19:02;99856.16;;;19.49;100.00
62333;BME280;48624;49.812;8.562;2023-09-18T02:21:27;99821.31;;;19.40;100.00
62333;BME280;48624;49.812;8.562;2023-09-18T02:23:53;99805.13;;;19.49;100.00
62333;BME280;48624;49.812;8.562;2023-09-18T02:26:20;99802.59;;;19.55;100.00
62333;BME280;48624;49.812;8.562;2023-09-18T02:28:46;99806.88;;;19.41;100.00
62333;BME280;48624;49.812;8.562;2023-09-18T02:31:11;99832.19;;;19.47;100.00
62333;BME280;48624;49.812;8.562;2023-09-18T02:33:37;99824.91;;;19.56;100.00
62333;BME280;48624;49.812;8.562;2023-09-18T02:36:03;99816.94;;;19.63;100.00
62333;BME280;48624;49.812;8.562;2023-09-18T02:38:29;99808.34;;;19.67;100.00
62333;BME280;48624;49.812;8.562;2023-09-18T02:40:57;99820.06;;;19.75;100.00
62333;BME280;48624;49.812;8.562;2023-09-18T02:43:23;99802.59;;;19.55;100.00
62333;BME280;48624;49.812;8.562;2023-09-18T02:45:49;99800.81;;;19.63;100.00
62333;BME280;48624;49.812;8.562;2023-09-18T02:48:15;99804.66;;;19.68;100.00
62333;BME280;48624;49.812;8.562;2023-09-18T02:50:41;99794.31;;;19.57;100.00
62333;BME280;48624;49.812;8.562;2023-09-18T02:53:07;99785.72;;;19.38;100.00
62333;BME280;48624;49.812;8.562;2023-09-18T02:55:36;99787.34;;;19.48;100.00
62333;BME280;48624;49.812;8.562;2023-09-18T02:58:02;99776.38;;;19.34;100.00
62333;BME280;48624;49.812;8.562;2023-09-18T03:00:27;99761.91;;;19.35;100.00
62333;BME280;48624;49.812;8.562;2023-09-18T03:02:52;99758.22;;;19.36;100.00
62333;BME280;48624;49.812;8.562;2023-09-18T03:05:18;99743.06;;;19.44;100.00
62333;BME280;48624;49.812;8.562;2023-09-18T03:07:43;99732.06;;;19.30;100.00
62333;BME280;48624;49.812;8.562;2023-09-18T03:10:10;99727.66;;;19.37;100.00
62333;BME280;48624;49.812;8.562;2023-09-18T03:12:38;99736.72;;;19.36;100.00
62333;BME280;48624;49.812;8.562;2023-09-18T03:15:04;99725.94;;;19.45;100.00
62333;BME280;48624;49.812;8.562;2023-09-18T03:17:32;99728.66;;;19.60;100.00
62333;BME280;48624;49.812;8.562;2023-09-18T03:19:57;99732.00;;;19.62;100.00
62333;BME280;48624;49.812;8.562;2023-09-18T03:22:22;99720.91;;;19.65;100.00
62333;BME280;48624;49.812;8.562;2023-09-18T03:24:49;99720.75;;;19.58;100.00
62333;BME280;48624;49.812;8.562;2023-09-18T03:27:14;99718.47;;;19.70;100.00
62333;BME280;48624;49.812;8.562;2023-09-18T03:29:40;99710.06;;;19.73;100.00
62333;BME280;48624;49.812;8.562;2023-09-18T03:32:05;99706.63;;;19.79;100.00
62333;BME280;48624;49.812;8.562;2023-09-18T03:34:31;99728.50;;;19.76;100.00
62333;BME280;48624;49.812;8.562;2023-09-18T03:36:56;99723.97;;;19.77;100.00
62333;BME280;48624;49.812;8.562;2023-09-18T03:39:21;99725.09;;;19.82;100.00
62333;BME280;48624;49.812;8.562;2023-09-18T03:41:46;99730.28;;;19.84;100.00
62333;BME280;48624;49.812;8.562;2023-09-18T03:44:12;99723.16;;;19.91;100.00
62333;BME280;48624;49.812;8.562;2023-09-18T03:46:37;99716.94;;;19.91;100.00
62333;BME280;48624;49.812;8.562;2023-09-18T03:49:02;99710.69;;;19.99;100.00
62333;BME280;48624;49.812;8.562;2023-09-18T03:51:28;99718.81;;;19.90;100.00
62333;BME280;48624;49.812;8.562;2023-09-18T03:53:54;99713.56;;;19.97;100.00
62333;BME280;48624;49.812;8.562;2023-09-18T03:56:20;99719.03;;;20.04;100.00
62333;BME280;48624;49.812;8.562;2023-09-18T03:58:45;99716.41;;;20.10;100.00
62333;BME280;48624;49.812;8.562;2023-09-18T04:01:14;99739.63;;;20.12;100.00
62333;BME280;48624;49.812;8.562;2023-09-18T04:03:39;99737.59;;;20.14;100.00
62333;BME280;48624;49.812;8.562;2023-09-18T04:06:04;99735.72;;;20.14;100.00
62333;BME280;48624;49.812;8.562;2023-09-18T04:08:30;99747.69;;;20.12;100.00
62333;BME280;48624;49.812;8.562;2023-09-18T04:10:55;99750.19;;;20.13;100.00
62333;BME280;48624;49.812;8.562;2023-09-18T04:13:23;99755.94;;;20.10;100.00
62333;BME280;48624;49.812;8.562;2023-09-18T04:15:48;99754.81;;;20.19;100.00
62333;BME280;48624;49.812;8.562;2023-09-18T04:18:13;99758.09;;;19.91;100.00
62333;BME280;48624;49.812;8.562;2023-09-18T04:20:39;99761.56;;;20.00;100.00
62333;BME280;48624;49.812;8.562;2023-09-18T04:23:20;99758.44;;;20.12;100.00
62333;BME280;48624;49.812;8.562;2023-09-18T04:25:47;99750.38;;;20.12;100.00
62333;BME280;48624;49.812;8.562;2023-09-18T04:28:13;99747.31;;;20.15;100.00
62333;BME280;48624;49.812;8.562;2023-09-18T04:30:39;99742.41;;;20.18;100.00
62333;BME280;48624;49.812;8.562;2023-09-18T04:33:04;99754.66;;;20.21;100.00
62333;BME280;48624;49.812;8.562;2023-09-18T04:35:29;99758.72;;;20.17;100.00
62333;BME280;48624;49.812;8.562;2023-09-18T04:37:56;99735.91;;;20.28;100.00
62333;BME280;48624;49.812;8.562;2023-09-18T04:40:24;99724.13;;;20.14;99.24
62333;BME280;48624;49.812;8.562;2023-09-18T04:42:50;99704.84;;;20.25;100.00
62333;BME280;48624;49.812;8.562;2023-09-18T04:45:15;99703.44;;;20.29;100.00
62333;BME280;48624;49.812;8.562;2023-09-18T04:47:41;99713.94;;;20.24;100.00
62333;BME280;48624;49.812;8.562;2023-09-18T04:50:07;99690.53;;;20.24;100.00
62333;BME280;48624;49.812;8.562;2023-09-18T04:52:35;99691.84;;;20.29;100.00
62333;BME280;48624;49.812;8.562;2023-09-18T04:55:00;99712.81;;;20.33;100.00
62333;BME280;48624;49.812;8.562;2023-09-18T04:57:25;99691.22;;;20.27;99.21
62333;BME280;48624;49.812;8.562;2023-09-18T04:59:51;99681.91;;;20.29;99.52
62333;BME280;48624;49.812;8.562;2023-09-18T05:02:16;99657.28;;;20.26;99.93
62333;BME280;48624;49.812;8.562;2023-09-18T05:04:42;99695.56;;;20.28;100.00
62333;BME280;48624;49.812;8.562;2023-09-18T05:07:07;99692.97;;;20.19;99.60
62333;BME280;48624;49.812;8.562;2023-09-18T05:09:32;99703.44;;;20.14;98.37
62333;BME280;48624;49.812;8.562;2023-09-18T05:11:59;99722.00;;;20.09;99.91
62333;BME280;48624;49.812;8.562;2023-09-18T05:14:25;99717.34;;;20.03;99.88
62333;BME280;48624;49.812;8.562;2023-09-18T05:16:50;99720.81;;;20.12;100.00
62333;BME280;48624;49.812;8.562;2023-09-18T05:19:15;99732.38;;;20.12;100.00
62333;BME280;48624;49.812;8.562;2023-09-18T05:21:40;99728.34;;;19.93;100.00
62333;BME280;48624;49.812;8.562;2023-09-18T05:24:07;99723.72;;;19.87;100.00
62333;BME280;48624;49.812;8.562;2023-09-18T05:26:32;99729.13;;;20.02;99.59
62333;BME280;48624;49.812;8.562;2023-09-18T05:28:58;99738.84;;;20.03;100.00
62333;BME280;48624;49.812;8.562;2023-09-18T05:31:24;99774.47;;;20.05;100.00
62333;BME280;48624;49.812;8.562;2023-09-18T05:33:49;99779.56;;;20.00;100.00
62333;BME280;48624;49.812;8.562;2023-09-18T05:36:15;99791.75;;;19.87;100.00
62333;BME280;48624;49.812;8.562;2023-09-18T05:38:41;99798.94;;;19.95;100.00
62333;BME280;48624;49.812;8.562;2023-09-18T05:41:06;99794.19;;;19.97;100.00
62333;BME280;48624;49.812;8.562;2023-09-18T05:43:32;99790.66;;;19.96;100.00
62333;BME280;48624;49.812;8.562;2023-09-18T05:45:57;99797.84;;;19.81;100.00
62333;BME280;48624;49.812;8.562;2023-09-18T05:48:22;99784.03;;;19.84;100.00
62333;BME280;48624;49.812;8.562;2023-09-18T05:50:48;99785.53;;;19.87;100.00
62333;BME280;48624;49.812;8.562;2023-09-18T05:53:13;99792.47;;;19.81;100.00
62333;BME280;48624;49.812;8.562;2023-09-18T05:55:39;99781.72;;;19.81;100.00
62333;BME280;48624;49.812;8.562;2023-09-18T05:58:04;99773.56;;;19.74;100.00
62333;BME280;48624;49.812;8.562;2023-09-18T06:00:32;99777.47;;;19.87;100.00
62333;BME280;48624;49.812;8.562;2023-09-18T06:02:57;99787.75;;;19.83;100.00
62333;BME280;48624;49.812;8.562;2023-09-18T06:05:23;99779.13;;;19.88;100.00
62333;BME280;48624;49.812;8.562;2023-09-18T06:07:49;99762.66;;;19.67;100.00
62333;BME280;48624;49.812;8.562;2023-09-18T06:10:15;99743.13;;;19.74;100.00
62333;BME280;48624;49.812;8.562;2023-09-18T06:12:43;99735.94;;;19.74;100.00
62333;BME280;48624;49.812;8.562;2023-09-18T06:15:10;99758.66;;;19.87;100.00
62333;BME280;48624;49.812;8.562;2023-09-18T06:17:39;99768.75;;;19.85;100.00
62333;BME280;48624;49.812;8.562;2023-09-18T06:20:06;99763.97;;;19.95;100.00
62333;BME280;48624;49.812;8.562;2023-09-18T06:22:38;99774.78;;;19.87;100.00
62333;BME280;48624;49.812;8.562;2023-09-18T06:25:05;99787.31;;;19.94;100.00
62333;BME280;48624;49.812;8.562;2023-09-18T06:27:31;99780.28;;;19.93;100.00
62333;BME280;48624;49.812;8.562;2023-09-18T06:29:57;99778.59;;;19.92;100.00
62333;BME280;48624;49.812;8.562;2023-09-18T06:32:23;99775.00;;;20.00;100.00
62333;BME280;48624;49.812;8.562;2023-09-18T06:34:48;99784.94;;;20.00;99.23
62333;BME280;48624;49.812;8.562;2023-09-18T06:37:14;99780.78;;;20.12;99.56
62333;BME280;48624;49.812;8.562;2023-09-18T06:39:39;99793.75;;;20.23;99.04
62333;BME280;48624;49.812;8.562;2023-09-18T06:42:05;99800.25;;;20.29;99.09
62333;BME280;48624;49.812;8.562;2023-09-18T06:44:30;99799.53;;;20.20;99.63
62333;BME280;48624;49.812;8.562;2023-09-18T06:46:55;99809.25;;;20.21;99.33
62333;BME280;48624;49.812;8.562;2023-09-18T06:49:21;99817.72;;;20.33;98.98
62333;BME280;48624;49.812;8.562;2023-09-18T06:51:48;99829.13;;;20.35;99.18
62333;BME280;48624;49.812;8.562;2023-09-18T06:54:13;99835.41;;;20.13;99.72
62333;BME280;48624;49.812;8.562;2023-09-18T06:56:38;99832.38;;;20.31;98.92
62333;BME280;48624;49.812;8.562;2023-09-18T06:59:04;99823.66;;;20.29;99.36
62333;BME280;48624;49.812;8.562;2023-09-18T07:01:29;99827.16;;;20.29;99.18
62333;BME280;48624;49.812;8.562;2023-09-18T07:03:56;99824.13;;;20.32;98.70
62333;BME280;48624;49.812;8.562;2023-09-18T07:06:22;99826.25;;;20.22;99.07
62333;BME280;48624;49.812;8.562;2023-09-18T07:08:48;99830.69;;;20.30;99.13
62333;BME280;48624;49.812;8.562;2023-09-18T07:11:14;99831.25;;;20.25;99.65
62333;BME280;48624;49.812;8.562;2023-09-18T07:13:40;99830.50;;;20.16;99.06
62333;BME280;48624;49.812;8.562;2023-09-18T07:16:06;99834.41;;;20.29;98.47
62333;BME280;48624;49.812;8.562;2023-09-18T07:18:31;99845.34;;;20.42;97.62
62333;BME280;48624;49.812;8.562;2023-09-18T07:20:58;99848.91;;;20.43;97.69
62333;BME280;48624;49.812;8.562;2023-09-18T07:23:23;99837.13;;;20.44;97.43
62333;BME280;48624;49.812;8.562;2023-09-18T07:25:48;99838.50;;;20.40;97.71
62333;BME280;48624;49.812;8.562;2023-09-18T07:28:13;99840.19;;;20.41;97.13
62333;BME280;48624;49.812;8.562;2023-09-18T07:30:43;99849.91;;;20.42;97.54
62333;BME280;48624;49.812;8.562;2023-09-18T07:33:12;99850.38;;;20.45;97.79
62333;BME280;48624;49.812;8.562;2023-09-18T07:35:37;99850.66;;;20.65;96.49
62333;BME280;48624;49.812;8.562;2023-09-18T07:38:04;99864.13;;;20.65;96.62
62333;BME280;48624;49.812;8.562;2023-09-18T07:40:30;99859.84;;;20.71;96.22
62333;BME280;48624;49.812;8.562;2023-09-18T07:42:55;99858.09;;;20.78;95.50
62333;BME280;48624;49.812;8.562;2023-09-18T07:45:20;99859.69;;;20.88;95.50
62333;BME280;48624;49.812;8.562;2023-09-18T07:47:46;99850.84;;;20.79;96.01
62333;BME280;48624;49.812;8.562;2023-09-18T07:50:11;99846.59;;;21.00;95.02
62333;BME280;48624;49.812;8.562;2023-09-18T07:52:36;99857.19;;;20.86;94.73
62333;BME280;48624;49.812;8.562;2023-09-18T07:55:02;99857.91;;;21.10;94.73
62333;BME280;48624;49.812;8.562;2023-09-18T07:57:28;99857.81;;;21.18;94.58
62333;BME280;48624;49.812;8.562;2023-09-18T07:59:55;99859.78;;;20.95;94.47
62333;BME280;48624;49.812;8.562;2023-09-18T08:02:20;99865.53;;;20.91;94.59
62333;BME280;48624;49.812;8.562;2023-09-18T08:04:47;99878.88;;;21.15;93.54
62333;BME280;48624;49.812;8.562;2023-09-18T08:07:12;99867.22;;;21.29;93.11
62333;BME280;48624;49.812;8.562;2023-09-18T08:09:37;99875.53;;;21.28;93.37
62333;BME280;48624;49.812;8.562;2023-09-18T08:12:07;99870.59;;;21.31;93.44
62333;BME280;48624;49.812;8.562;2023-09-18T08:14:33;99873.09;;;21.33;92.83
62333;BME280;48624;49.812;8.562;2023-09-18T08:17:01;99885.34;;;21.35;93.00
62333;BME280;48624;49.812;8.562;2023-09-18T08:19:28;99880.88;;;21.43;92.37
62333;BME280;48624;49.812;8.562;2023-09-18T08:21:55;99882.00;;;21.33;92.21
62333;BME280;48624;49.812;8.562;2023-09-18T08:24:23;99885.94;;;21.53;91.65
62333;BME280;48624;49.812;8.562;2023-09-18T08:26:48;99888.75;;;21.59;91.09
62333;BME280;48624;49.812;8.562;2023-09-18T08:29:14;99881.75;;;21.65;90.79
62333;BME280;48624;49.812;8.562;2023-09-18T08:31:40;99879.13;;;21.72;90.41
62333;BME280;48624;49.812;8.562;2023-09-18T08:34:05;99872.31;;;21.76;89.68
62333;BME280;48624;49.812;8.562;2023-09-18T08:36:30;99873.13;;;21.55;87.88
62333;BME280;48624;49.812;8.562;2023-09-18T08:38:57;99867.31;;;21.73;87.46
62333;BME280;48624;49.812;8.562;2023-09-18T08:41:23;99868.81;;;21.75;86.62
62333;BME280;48624;49.812;8.562;2023-09-18T08:43:52;99880.03;;;21.79;86.84
62333;BME280;48624;49.812;8.562;2023-09-18T08:46:20;99871.38;;;21.84;86.41
62333;BME280;48624;49.812;8.562;2023-09-18T08:48:46;99864.38;;;21.68;86.60
62333;BME280;48624;49.812;8.562;2023-09-18T08:51:12;99851.16;;;21.73;85.78
62333;BME280;48624;49.812;8.562;2023-09-18T08:53:39;99841.50;;;21.85;85.88
62333;BME280;48624;49.812;8.562;2023-09-18T08:56:06;99840.88;;;21.83;86.15
62333;BME280;48624;49.812;8.562;2023-09-18T08:58:34;99844.16;;;21.79;86.24
62333;BME280;48624;49.812;8.562;2023-09-18T09:01:03;99840.19;;;21.74;86.46
62333;BME280;48624;49.812;8.562;2023-09-18T09:03:40;99832.59;;;21.85;85.78
62333;BME280;48624;49.812;8.562;2023-09-18T09:06:07;99841.06;;;22.03;85.57
62333;BME280;48624;49.812;8.562;2023-09-18T09:08:35;99845.09;;;21.93;85.03
62333;BME280;48624;49.812;8.562;2023-09-18T09:11:01;99848.59;;;21.86;85.05
62333;BME280;48624;49.812;8.562;2023-09-18T09:13:26;99850.31;;;21.94;85.12
62333;BME280;48624;49.812;8.562;2023-09-18T09:15:54;99846.28;;;21.83;83.93
62333;BME280;48624;49.812;8.562;2023-09-18T09:18:25;99848.66;;;22.22;82.52
62333;BME280;48624;49.812;8.562;2023-09-18T09:20:58;99836.47;;;22.04;83.54
62333;BME280;48624;49.812;8.562;2023-09-18T09:23:26;99835.44;;;22.05;83.75
62333;BME280;48624;49.812;8.562;2023-09-18T09:25:52;99843.03;;;22.16;83.18
62333;BME280;48624;49.812;8.562;2023-09-18T09:28:29;99837.16;;;22.06;81.75
62333;BME280;48624;49.812;8.562;2023-09-18T09:31:00;99855.38;;;22.33;81.85
62333;BME280;48624;49.812;8.562;2023-09-18T09:33:28;99876.50;;;22.51;80.92
62333;BME280;48624;49.812;8.562;2023-09-18T09:35:54;99877.38;;;22.08;82.58
62333;BME280;48624;49.812;8.562;2023-09-18T09:38:28;99875.72;;;22.07;82.95
62333;BME280;48624;49.812;8.562;2023-09-18T09:40:54;99880.81;;;22.16;83.11
62333;BME280;48624;49.812;8.562;2023-09-18T09:45:46;99870.81;;;22.17;82.88
62333;BME280;48624;49.812;8.562;2023-09-18T09:50:44;99868.97;;;22.17;81.74
62333;BME280;48624;49.812;8.562;2023-09-18T09:53:14;99878.38;;;22.28;81.76
62333;BME280;48624;49.812;8.562;2023-09-18T09:55:40;99879.81;;;22.24;81.82
62333;BME280;48624;49.812;8.562;2023-09-18T09:58:07;99887.06;;;22.24;81.88
62333;BME280;48624;49.812;8.562;2023-09-18T10:00:49;99882.97;;;22.28;82.37
62333;BME280;48624;49.812;8.562;2023-09-18T10:03:18;99878.59;;;22.27;82.72
62333;BME280;48624;49.812;8.562;2023-09-18T10:05:46;99885.81;;;21.76;82.16
62333;BME280;48624;49.812;8.562;2023-09-18T10:08:22;99885.22;;;22.24;82.76
62333;BME280;48624;49.812;8.562;2023-09-18T10:10:53;99868.75;;;21.90;82.87
62333;BME280;48624;49.812;8.562;2023-09-18T10:13:32;99887.94;;;22.02;82.28
62333;BME280;48624;49.812;8.562;2023-09-18T10:16:01;99872.56;;;22.03;83.85
62333;BME280;48624;49.812;8.562;2023-09-18T10:18:59;99885.81;;;21.98;83.47
62333;BME280;48624;49.812;8.562;2023-09-18T10:21:38;99887.88;;;22.17;81.85
62333;BME280;48624;49.812;8.562;2023-09-18T10:24:17;99883.53;;;22.23;81.61
62333;BME280;48624;49.812;8.562;2023-09-18T10:26:58;99882.13;;;22.27;80.96
62333;BME280;48624;49.812;8.562;2023-09-18T10:29:24;99874.06;;;22.56;80.38
62333;BME280;48624;49.812;8.562;2023-09-18T10:31:50;99878.75;;;22.76;79.18
62333;BME280;48624;49.812;8.562;2023-09-18T10:34:17;99881.41;;;22.69;78.95
62333;BME280;48624;49.812;8.562;2023-09-18T10:36:46;99884.34;;;22.74;79.00
62333;BME280;48624;49.812;8.562;2023-09-18T10:39:11;99875.59;;;23.07;77.36
62333;BME280;48624;49.812;8.562;2023-09-18T10:41:38;99867.66;;;22.99;76.76
62333;BME280;48624;49.812;8.562;2023-09-18T10:44:04;99874.41;;;22.81;77.36
62333;BME280;48624;49.812;8.562;2023-09-18T10:46:30;99889.06;;;23.00;77.71
62333;BME280;48624;49.812;8.562;2023-09-18T10:48:58;99881.63;;;23.09;76.29
62333;BME280;48624;49.812;8.562;2023-09-18T10:51:24;99883.72;;;23.21;77.24
62333;BME280;48624;49.812;8.562;2023-09-18T10:53:50;99887.34;;;23.35;76.73
62333;BME280;48624;49.812;8.562;2023-09-18T10:56:19;99891.53;;;23.37;76.58
62333;BME280;48624;49.812;8.562;2023-09-18T10:58:45;99894.22;;;23.37;77.17
62333;BME280;48624;49.812;8.562;2023-09-18T11:01:13;99891.59;;;23.58;76.44
62333;BME280;48624;49.812;8.562;2023-09-18T11:03:39;99886.19;;;23.71;75.70
62333;BME280;48624;49.812;8.562;2023-09-18T11:06:08;99889.97;;;23.83;75.94
62333;BME280;48624;49.812;8.562;2023-09-18T11:08:44;99893.09;;;23.94;75.17
62333;BME280;48624;49.812;8.562;2023-09-18T11:11:11;99888.09;;;23.91;73.77
62333;BME280;48624;49.812;8.562;2023-09-18T11:13:42;99877.72;;;24.55;71.29
62333;BME280;48624;49.812;8.562;2023-09-18T11:16:37;99872.97;;;24.23;72.99
62333;BME280;48624;49.812;8.562;2023-09-18T11:21:31;99894.78;;;24.56;72.41
62333;BME280;48624;49.812;8.562;2023-09-18T11:24:11;99893.56;;;24.38;71.59
62333;BME280;48624;49.812;8.562;2023-09-18T11:26:41;99894.94;;;24.74;70.70
62333;BME280;48624;49.812;8.562;2023-09-18T11:29:13;99905.00;;;24.53;72.15
62333;BME280;48624;49.812;8.562;2023-09-18T11:31:49;99887.09;;;24.52;71.48
62333;BME280;48624;49.812;8.562;2023-09-18T11:34:35;99891.88;;;24.57;71.40
62333;BME280;48624;49.812;8.562;2023-09-18T11:37:02;99891.88;;;24.50;70.55
62333;BME280;48624;49.812;8.562;2023-09-18T11:39:44;99888.31;;;24.70;70.38
62333;BME280;48624;49.812;8.562;2023-09-18T11:42:19;99891.38;;;25.01;67.73
62333;BME280;48624;49.812;8.562;2023-09-18T11:44:47;99892.94;;;24.36;69.64
62333;BME280;48624;49.812;8.562;2023-09-18T11:47:15;99890.63;;;24.39;70.55
62333;BME280;48624;49.812;8.562;2023-09-18T11:49:50;99887.09;;;24.46;70.22
62333;BME280;48624;49.812;8.562;2023-09-18T11:52:20;99885.81;;;24.62;70.46
62333;BME280;48624;49.812;8.562;2023-09-18T11:54:46;99888.28;;;24.77;69.72
62333;BME280;48624;49.812;8.562;2023-09-18T11:57:13;99881.00;;;24.77;70.30
62333;BME280;48624;49.812;8.562;2023-09-18T11:59:40;99875.13;;;24.94;70.12
62333;BME280;48624;49.812;8.562;2023-09-18T12:02:24;99872.22;;;24.96;69.42
62333;BME280;48624;49.812;8.562;2023-09-18T12:04:53;99867.34;;;25.63;67.80
62333;BME280;48624;49.812;8.562;2023-09-18T12:07:19;99885.28;;;26.48;63.50
62333;BME280;48624;49.812;8.562;2023-09-18T12:09:44;99896.84;;;26.11;64.26
62333;BME280;48624;49.812;8.562;2023-09-18T12:12:11;99872.28;;;26.31;62.34
62333;BME280;48624;49.812;8.562;2023-09-18T12:14:39;99888.84;;;25.58;64.15
62333;BME280;48624;49.812;8.562;2023-09-18T12:18:09;99895.56;;;25.88;63.15
62333;BME280;48624;49.812;8.562;2023-09-18T12:20:37;99891.09;;;25.68;63.78
62333;BME280;48624;49.812;8.562;2023-09-18T12:23:03;99892.44;;;24.93;66.94
62333;BME280;48624;49.812;8.562;2023-09-18T12:25:29;99890.47;;;25.20;64.81
62333;BME280;48624;49.812;8.562;2023-09-18T12:27:54;99886.09;;;25.19;65.95
62333;BME280;48624;49.812;8.562;2023-09-18T12:30:21;99893.03;;;25.08;66.65
62333;BME280;48624;49.812;8.562;2023-09-18T12:32:48;99886.84;;;25.40;66.52
62333;BME280;48624;49.812;8.562;2023-09-18T12:35:14;99889.03;;;25.63;65.52
62333;BME280;48624;49.812;8.562;2023-09-18T12:37:40;99875.94;;;25.47;65.94
62333;BME280;48624;49.812;8.562;2023-09-18T12:40:07;99877.03;;;25.78;64.82
62333;BME280;48624;49.812;8.562;2023-09-18T12:42:39;99881.84;;;25.76;64.39
62333;BME280;48624;49.812;8.562;2023-09-18T12:45:07;99876.72;;;25.93;63.66
62333;BME280;48624;49.812;8.562;2023-09-18T12:47:33;99883.03;;;25.87;63.82
62333;BME280;48624;49.812;8.562;2023-09-18T12:50:03;99881.16;;;25.87;64.63
62333;BME280;48624;49.812;8.562;2023-09-18T12:52:29;99870.53;;;26.11;64.03
62333;BME280;48624;49.812;8.562;2023-09-18T12:54:54;99878.97;;;26.72;60.80
62333;BME280;48624;49.812;8.562;2023-09-18T12:57:21;99878.63;;;25.93;64.36
62333;BME280;48624;49.812;8.562;2023-09-18T12:59:46;99865.63;;;25.69;64.42
62333;BME280;48624;49.812;8.562;2023-09-18T13:02:17;99862.72;;;25.71;63.79
62333;BME280;48624;49.812;8.562;2023-09-18T13:04:51;99859.16;;;25.70;63.70
62333;BME280;48624;49.812;8.562;2023-09-18T13:07:16;99857.22;;;25.77;63.66